Time;durP1;ratioP1;P1;durP2;ratioP2;P2;SDS_P1;SDS_P2;PMS_P1;PMS_P2;Temp;Humidity;BMP_temperature;BMP_pressure;BME280_temperature;BME280_humidity;BME280_pressure;Samples;Min_cycle;Max_cycle;Signal;HPM_P1;HPM_P2
2022/09/25 00:01:59;;;;;;;;;;;19.90;56.10;;;;;;5016805;28;20366;-73
2022/09/25 00:04:24;;;;;;;;;;;19.90;56.10;;;;;;5032202;28;19956;-74
2022/09/25 00:06:49;;;;;;;;;;;19.90;56.00;;;;;;5016971;28;20008;-73
2022/09/25 00:09:19;;;;;;;;;;;19.90;56.00;;;;;;5005529;28;19914;-74
2022/09/25 00:11:44;;;;;;;;;;;19.90;56.10;;;;;;4983621;28;19921;-73
2022/09/25 00:14:10;;;;;;;;;;;19.90;56.00;;;;;;4983332;28;19915;-73
2022/09/25 00:16:35;;;;;;;;;;;19.80;56.00;;;;;;5016688;28;19925;-73
2022/09/25 00:21:47;;;;;;;;;;;19.80;56.10;;;;;;5016926;28;19921;-73
2022/09/25 00:24:13;;;;;;;;;;;19.80;56.00;;;;;;5015466;28;19913;-72
2022/09/25 00:26:40;;;;;;;;;;;19.80;56.10;;;;;;5016697;28;19920;-74
2022/09/25 00:29:05;;;;;;;;;;;19.80;56.10;;;;;;5015560;28;19985;-73
2022/09/25 00:31:31;;;;;;;;;;;19.80;56.10;;;;;;5014993;28;20055;-74
2022/09/25 00:33:57;;;;;;;;;;;19.80;56.10;;;;;;5015271;28;19910;-74
2022/09/25 00:36:22;;;;;;;;;;;19.80;56.10;;;;;;5016445;28;19936;-74
2022/09/25 00:38:49;;;;;;;;;;;19.80;56.10;;;;;;5016611;28;20000;-73
2022/09/25 00:41:15;;;;;;;;;;;19.80;56.30;;;;;;5015323;28;19917;-74
2022/09/25 00:43:43;;;;;;;;;;;19.80;56.20;;;;;;5016226;28;19909;-73
2022/09/25 00:46:24;;;;;;;;;;;19.80;56.30;;;;;;5015968;28;19917;-74
2022/09/25 00:48:53;;;;;;;;;;;19.80;56.40;;;;;;5016293;28;19913;-73
2022/09/25 00:51:19;;;;;;;;;;;19.70;56.20;;;;;;5031305;28;19917;-73
2022/09/25 00:53:45;;;;;;;;;;;19.70;56.30;;;;;;5016276;28;19921;-73
2022/09/25 00:56:10;;;;;;;;;;;19.70;56.30;;;;;;5015899;28;19913;-73
2022/09/25 00:58:36;;;;;;;;;;;19.80;56.30;;;;;;5014907;28;19913;-74
2022/09/25 01:01:01;;;;;;;;;;;19.70;56.20;;;;;;5030979;28;19975;-73
2022/09/25 01:03:27;;;;;;;;;;;19.70;56.20;;;;;;5031190;28;20295;-74
2022/09/25 01:05:53;;;;;;;;;;;19.80;56.20;;;;;;5014555;28;19913;-74
2022/09/25 01:08:22;;;;;;;;;;;19.80;56.10;;;;;;5027377;28;19909;-73
2022/09/25 01:10:48;;;;;;;;;;;19.80;56.10;;;;;;5014286;28;19949;-72
2022/09/25 01:13:13;;;;;;;;;;;19.80;56.10;;;;;;4998156;28;20009;-73
2022/09/25 01:15:50;;;;;;;;;;;19.80;56.20;;;;;;5015522;28;19929;-73
2022/09/25 01:18:34;;;;;;;;;;;19.80;56.10;;;;;;5015780;28;19993;-73
2022/09/25 01:21:04;;;;;;;;;;;19.80;56.10;;;;;;5015617;28;20278;-73
2022/09/25 01:23:44;;;;;;;;;;;19.70;56.10;;;;;;5014292;28;19913;-72
2022/09/25 01:26:16;;;;;;;;;;;19.70;56.10;;;;;;5014630;28;19909;-72
2022/09/25 01:28:55;;;;;;;;;;;19.80;56.20;;;;;;5015689;28;19960;-74
2022/09/25 01:31:23;;;;;;;;;;;19.80;56.10;;;;;;5013900;28;20346;-73
2022/09/25 01:33:56;;;;;;;;;;;19.80;56.10;;;;;;5015557;28;19913;-74
2022/09/25 01:36:25;;;;;;;;;;;19.80;56.10;;;;;;5015447;28;20317;-73
2022/09/25 01:39:10;;;;;;;;;;;19.80;56.20;;;;;;5013959;28;19996;-72
2022/09/25 01:41:43;;;;;;;;;;;19.70;56.10;;;;;;5013809;28;19916;-73
2022/09/25 01:44:14;;;;;;;;;;;19.80;56.20;;;;;;5015384;28;19910;-73
2022/09/25 01:46:41;;;;;;;;;;;19.70;56.10;;;;;;5013575;28;19913;-73
2022/09/25 01:49:10;;;;;;;;;;;19.80;56.20;;;;;;5013839;28;20289;-73
2022/09/25 01:51:37;;;;;;;;;;;19.70;56.20;;;;;;5013945;28;19996;-72
2022/09/25 01:54:07;;;;;;;;;;;19.70;56.20;;;;;;5013933;28;20309;-74
2022/09/25 01:56:33;;;;;;;;;;;19.70;56.30;;;;;;5013718;28;19913;-74
2022/09/25 01:59:08;;;;;;;;;;;19.70;56.30;;;;;;5014959;28;19914;-73
2022/09/25 02:01:35;;;;;;;;;;;19.70;56.20;;;;;;5013305;28;20285;-73
2022/09/25 02:04:11;;;;;;;;;;;19.70;56.30;;;;;;5013529;28;19980;-73
2022/09/25 02:06:37;;;;;;;;;;;19.70;56.40;;;;;;5013586;28;20011;-73
2022/09/25 02:09:03;;;;;;;;;;;19.60;56.30;;;;;;5013400;28;19960;-73
2022/09/25 02:11:30;;;;;;;;;;;19.70;56.30;;;;;;5013400;28;19914;-74
2022/09/25 02:13:57;;;;;;;;;;;19.70;56.30;;;;;;5013440;28;19957;-73
2022/09/25 02:16:31;;;;;;;;;;;19.70;56.20;;;;;;5013124;28;19917;-73
2022/09/25 02:21:43;;;;;;;;;;;19.70;56.20;;;;;;5013097;28;19963;-73
2022/09/25 02:24:24;;;;;;;;;;;19.70;56.20;;;;;;5013449;28;19917;-74
2022/09/25 02:26:49;;;;;;;;;;;19.70;56.20;;;;;;5014447;28;20273;-74
2022/09/25 02:29:14;;;;;;;;;;;19.70;56.20;;;;;;5014199;28;19959;-73
2022/09/25 02:31:59;;;;;;;;;;;19.70;56.30;;;;;;4996159;28;20373;-74
2022/09/25 02:34:24;;;;;;;;;;;19.70;56.20;;;;;;5014144;28;19972;-74
2022/09/25 02:36:50;;;;;;;;;;;19.70;56.20;;;;;;5014231;28;19956;-74
2022/09/25 02:39:16;;;;;;;;;;;19.70;56.30;;;;;;4996365;28;19917;-73
2022/09/25 02:42:04;;;;;;;;;;;19.70;56.30;;;;;;5012698;28;19909;-74
2022/09/25 02:44:49;;;;;;;;;;;19.70;56.40;;;;;;5012952;28;19916;-74
2022/09/25 02:47:33;;;;;;;;;;;19.70;56.30;;;;;;5013763;28;19918;-73
2022/09/25 02:50:04;;;;;;;;;;;19.70;56.40;;;;;;5014081;28;19956;-73
2022/09/25 02:52:34;;;;;;;;;;;19.60;56.40;;;;;;4996316;28;19919;-73
2022/09/25 02:55:08;;;;;;;;;;;19.60;56.40;;;;;;5012693;28;19913;-74
2022/09/25 02:57:41;;;;;;;;;;;19.60;56.50;;;;;;5012555;28;19925;-74
2022/09/25 03:00:07;;;;;;;;;;;19.60;56.40;;;;;;5012541;28;19917;-73
2022/09/25 03:02:32;;;;;;;;;;;19.60;56.40;;;;;;5012081;28;19909;-74
2022/09/25 03:04:58;;;;;;;;;;;19.60;56.40;;;;;;5012218;28;20389;-74
2022/09/25 03:07:23;;;;;;;;;;;19.60;56.40;;;;;;5012278;28;19957;-73
2022/09/25 03:09:49;;;;;;;;;;;19.60;56.30;;;;;;5012314;28;19920;-73
2022/09/25 03:12:14;;;;;;;;;;;19.60;56.30;;;;;;5012331;28;20020;-74
2022/09/25 03:14:40;;;;;;;;;;;19.70;56.40;;;;;;5012380;28;19925;-74
2022/09/25 03:17:08;;;;;;;;;;;19.70;56.40;;;;;;5012638;28;21279;-74
2022/09/25 03:19:33;;;;;;;;;;;19.70;56.30;;;;;;5012090;28;19910;-73
2022/09/25 03:21:59;;;;;;;;;;;19.60;56.30;;;;;;4995589;28;20389;-74
2022/09/25 03:24:25;;;;;;;;;;;19.60;56.20;;;;;;5012262;28;19910;-75
2022/09/25 03:26:50;;;;;;;;;;;19.70;56.30;;;;;;5013350;28;20091;-74
2022/09/25 03:29:16;;;;;;;;;;;19.70;56.20;;;;;;5013320;28;19916;-73
2022/09/25 03:31:41;;;;;;;;;;;19.70;56.20;;;;;;5012207;28;20432;-74
2022/09/25 03:34:07;;;;;;;;;;;19.70;56.20;;;;;;5013460;28;19996;-73
2022/09/25 03:36:35;;;;;;;;;;;19.70;56.30;;;;;;5013220;28;19964;-73
2022/09/25 03:39:00;;;;;;;;;;;19.60;56.20;;;;;;5012673;28;19909;-73
2022/09/25 03:41:27;;;;;;;;;;;19.70;56.40;;;;;;5011799;28;19971;-72
2022/09/25 03:43:52;;;;;;;;;;;19.60;56.20;;;;;;5011867;28;19917;-74
2022/09/25 03:46:19;;;;;;;;;;;19.60;56.20;;;;;;5012635;28;20285;-73
2022/09/25 03:48:45;;;;;;;;;;;19.60;56.30;;;;;;5011943;28;20381;-72
2022/09/25 03:51:10;;;;;;;;;;;19.60;56.30;;;;;;4995336;28;20420;-74
2022/09/25 03:53:36;;;;;;;;;;;19.60;56.30;;;;;;5013217;28;19910;-73
2022/09/25 03:56:02;;;;;;;;;;;19.60;56.40;;;;;;5012887;28;20348;-74
2022/09/25 03:58:28;;;;;;;;;;;19.60;56.30;;;;;;5011847;28;19916;-74
2022/09/25 04:00:56;;;;;;;;;;;19.70;56.40;;;;;;5012618;28;19961;-74
2022/09/25 04:03:22;;;;;;;;;;;19.60;56.20;;;;;;5011612;28;19918;-73
2022/09/25 04:05:48;;;;;;;;;;;19.60;56.20;;;;;;5012894;28;19922;-74
2022/09/25 04:08:13;;;;;;;;;;;19.70;56.30;;;;;;5011832;28;19975;-73
2022/09/25 04:10:39;;;;;;;;;;;19.70;56.30;;;;;;5011717;28;19996;-73
2022/09/25 04:13:05;;;;;;;;;;;19.70;56.30;;;;;;5012981;28;19921;-74
2022/09/25 04:15:30;;;;;;;;;;;19.70;56.30;;;;;;4994920;28;20365;-74
2022/09/25 04:17:56;;;;;;;;;;;19.70;56.20;;;;;;5012776;28;20392;-74
2022/09/25 04:20:22;;;;;;;;;;;19.60;56.20;;;;;;5011806;28;19910;-74
2022/09/25 04:22:47;;;;;;;;;;;19.60;56.40;;;;;;5012763;28;19909;-73
2022/09/25 04:25:13;;;;;;;;;;;19.60;56.40;;;;;;5012805;28;20004;-74
2022/09/25 04:27:38;;;;;;;;;;;19.60;56.40;;;;;;4995017;28;19914;-74
2022/09/25 04:30:04;;;;;;;;;;;19.60;56.50;;;;;;5012759;28;19925;-72
2022/09/25 04:35:13;;;;;;;;;;;19.60;56.20;;;;;;5011646;28;19922;-74
2022/09/25 04:37:39;;;;;;;;;;;19.60;56.20;;;;;;5012727;28;20284;-73
2022/09/25 04:40:04;;;;;;;;;;;19.60;56.30;;;;;;5012778;28;19914;-74
2022/09/25 04:42:30;;;;;;;;;;;19.60;56.20;;;;;;5012625;28;20429;-74
2022/09/25 04:44:56;;;;;;;;;;;19.60;56.20;;;;;;5031573;28;20328;-74
2022/09/25 04:47:21;;;;;;;;;;;19.60;56.20;;;;;;5015825;28;19916;-74
2022/09/25 04:49:47;;;;;;;;;;;19.60;56.30;;;;;;5031572;28;20373;-74
2022/09/25 04:52:13;;;;;;;;;;;19.60;56.20;;;;;;5016043;28;20285;-74
2022/09/25 04:54:39;;;;;;;;;;;19.60;56.30;;;;;;5016115;28;20328;-74
2022/09/25 04:57:04;;;;;;;;;;;19.60;56.20;;;;;;5031172;28;19913;-74
2022/09/25 04:59:30;;;;;;;;;;;19.60;56.20;;;;;;5014681;28;20285;-74
2022/09/25 05:01:55;;;;;;;;;;;19.60;56.20;;;;;;5030960;28;19924;-74
2022/09/25 05:04:21;;;;;;;;;;;19.60;56.30;;;;;;5015805;28;19922;-74
2022/09/25 05:06:47;;;;;;;;;;;19.60;56.20;;;;;;5015655;28;19909;-74
2022/09/25 05:09:12;;;;;;;;;;;19.60;56.20;;;;;;5015625;28;19977;-74
2022/09/25 05:11:37;;;;;;;;;;;19.60;56.30;;;;;;5030952;28;19909;-74
2022/09/25 05:14:03;;;;;;;;;;;19.60;56.30;;;;;;5014279;28;19921;-73
2022/09/25 05:16:29;;;;;;;;;;;19.60;56.30;;;;;;5030474;28;20370;-74
2022/09/25 05:18:55;;;;;;;;;;;19.60;56.30;;;;;;5015776;28;19917;-74
2022/09/25 05:21:21;;;;;;;;;;;19.60;56.20;;;;;;5015611;28;19916;-74
2022/09/25 05:23:46;;;;;;;;;;;19.60;56.30;;;;;;5015687;28;19910;-74
2022/09/25 05:26:12;;;;;;;;;;;19.60;56.30;;;;;;5014204;28;19975;-74
2022/09/25 05:28:37;;;;;;;;;;;19.60;56.30;;;;;;5014241;28;19916;-74
2022/09/25 05:31:03;;;;;;;;;;;19.60;56.30;;;;;;5015079;28;20404;-74
2022/09/25 05:33:29;;;;;;;;;;;19.60;56.40;;;;;;5015396;28;19959;-74
2022/09/25 05:35:54;;;;;;;;;;;19.60;56.40;;;;;;5014057;28;20063;-74
2022/09/25 05:38:20;;;;;;;;;;;19.60;56.40;;;;;;5014038;28;19956;-74
2022/09/25 05:40:45;;;;;;;;;;;19.60;56.40;;;;;;5015095;28;20374;-74
2022/09/25 05:43:13;;;;;;;;;;;19.60;56.50;;;;;;5015117;28;20266;-75
2022/09/25 05:45:39;;;;;;;;;;;19.50;56.40;;;;;;4997229;28;19920;-73
2022/09/25 05:48:05;;;;;;;;;;;19.50;56.40;;;;;;5014954;28;20004;-74
2022/09/25 05:50:31;;;;;;;;;;;19.50;56.40;;;;;;4997654;28;20387;-74
2022/09/25 05:52:57;;;;;;;;;;;19.60;56.40;;;;;;5013729;28;19949;-74
2022/09/25 05:55:22;;;;;;;;;;;19.60;56.40;;;;;;5012936;28;19920;-74
2022/09/25 05:57:48;;;;;;;;;;;19.60;57.10;;;;;;5014930;28;19913;-74
2022/09/25 06:00:15;;;;;;;;;;;19.60;56.40;;;;;;5013741;28;19916;-74
2022/09/25 06:02:40;;;;;;;;;;;19.60;56.40;;;;;;5014410;28;19959;-74
2022/09/25 06:05:07;;;;;;;;;;;19.60;56.40;;;;;;4997130;28;20369;-74
2022/09/25 06:07:33;;;;;;;;;;;19.60;56.40;;;;;;5014722;28;19916;-74
2022/09/25 06:09:58;;;;;;;;;;;19.60;56.40;;;;;;4994108;28;19913;-73
2022/09/25 06:12:24;;;;;;;;;;;19.60;56.40;;;;;;4994971;28;19918;-74
2022/09/25 06:14:51;;;;;;;;;;;19.60;56.30;;;;;;4993796;28;20448;-73
2022/09/25 06:17:16;;;;;;;;;;;19.60;56.40;;;;;;4993358;28;19956;-73
2022/09/25 06:19:42;;;;;;;;;;;19.60;56.40;;;;;;4993644;28;19913;-73
2022/09/25 06:22:07;;;;;;;;;;;19.60;56.40;;;;;;4994897;28;19910;-74
2022/09/25 06:24:33;;;;;;;;;;;19.60;56.40;;;;;;4993706;28;19945;-74
2022/09/25 06:26:58;;;;;;;;;;;19.60;56.40;;;;;;4993328;28;19968;-74
2022/09/25 06:29:23;;;;;;;;;;;19.60;56.40;;;;;;4994755;28;20004;-74
2022/09/25 06:31:50;;;;;;;;;;;19.60;56.40;;;;;;4994464;28;19914;-74
2022/09/25 06:34:15;;;;;;;;;;;19.60;56.40;;;;;;4993587;28;19933;-73
2022/09/25 06:36:41;;;;;;;;;;;19.60;56.40;;;;;;4993273;28;19914;-74
2022/09/25 06:39:07;;;;;;;;;;;19.60;56.40;;;;;;5006956;28;20365;-74
2022/09/25 06:41:32;;;;;;;;;;;19.60;56.40;;;;;;5029281;28;19971;-74
2022/09/25 06:43:58;;;;;;;;;;;19.60;56.40;;;;;;5029334;28;19910;-73
2022/09/25 06:46:24;;;;;;;;;;;19.60;56.50;;;;;;5012213;28;20393;-74
2022/09/25 06:48:53;;;;;;;;;;;19.60;56.80;;;;;;5029233;28;19917;-74
2022/09/25 06:51:19;;;;;;;;;;;19.50;56.40;;;;;;5013942;28;20044;-74
2022/09/25 06:53:44;;;;;;;;;;;19.50;56.50;;;;;;5029141;28;20479;-74
2022/09/25 06:56:09;;;;;;;;;;;19.60;56.50;;;;;;5013786;28;20293;-74
2022/09/25 06:58:35;;;;;;;;;;;19.60;56.40;;;;;;5022643;28;19909;-72
2022/09/25 07:01:00;;;;;;;;;;;19.50;56.40;;;;;;5012053;28;20013;-74
2022/09/25 07:03:44;;;;;;;;;;;19.60;56.50;;;;;;5012044;28;19959;-74
2022/09/25 07:06:13;;;;;;;;;;;19.60;56.50;;;;;;5013490;28;20112;-74
2022/09/25 07:08:39;;;;;;;;;;;19.50;56.40;;;;;;5012635;28;19913;-74
2022/09/25 07:11:04;;;;;;;;;;;19.60;56.40;;;;;;5013652;28;19913;-74
2022/09/25 07:13:31;;;;;;;;;;;19.60;56.50;;;;;;5012280;28;19936;-74
2022/09/25 07:16:00;;;;;;;;;;;19.50;56.40;;;;;;5013045;28;19926;-74
2022/09/25 07:18:26;;;;;;;;;;;19.60;56.50;;;;;;5012294;28;19956;-75
2022/09/25 07:20:52;;;;;;;;;;;19.50;56.40;;;;;;4995756;28;19913;-74
2022/09/25 07:23:18;;;;;;;;;;;19.50;56.50;;;;;;5012369;28;20361;-74
2022/09/25 07:25:44;;;;;;;;;;;19.50;56.50;;;;;;5012025;28;19913;-74
2022/09/25 07:28:11;;;;;;;;;;;19.50;56.50;;;;;;5012223;28;19917;-74
2022/09/25 07:30:37;;;;;;;;;;;19.50;56.50;;;;;;5012966;28;19909;-74
2022/09/25 07:33:02;;;;;;;;;;;19.50;56.60;;;;;;4995535;28;19910;-73
2022/09/25 07:35:28;;;;;;;;;;;19.50;56.60;;;;;;5013107;28;20361;-73
2022/09/25 07:37:56;;;;;;;;;;;19.50;56.60;;;;;;4995169;28;20024;-72
2022/09/25 07:40:22;;;;;;;;;;;19.50;56.60;;;;;;5011987;28;19965;-73
2022/09/25 07:42:47;;;;;;;;;;;19.50;56.60;;;;;;4995565;28;19945;-74
2022/09/25 07:45:13;;;;;;;;;;;19.50;56.60;;;;;;5013207;28;19916;-73
2022/09/25 07:47:38;;;;;;;;;;;19.50;56.60;;;;;;5012720;28;19921;-73
2022/09/25 07:50:04;;;;;;;;;;;19.50;56.80;;;;;;5013133;28;19919;-74
2022/09/25 07:52:29;;;;;;;;;;;19.50;56.70;;;;;;5011657;28;19909;-73
2022/09/25 07:54:55;;;;;;;;;;;19.50;56.70;;;;;;5011986;28;19940;-73
2022/09/25 07:57:20;;;;;;;;;;;19.50;56.70;;;;;;5012923;28;19952;-73
2022/09/25 07:59:46;;;;;;;;;;;19.50;56.70;;;;;;5013175;28;19909;-73
2022/09/25 08:02:12;;;;;;;;;;;19.50;56.70;;;;;;5012553;28;19916;-74
2022/09/25 08:04:37;;;;;;;;;;;19.50;56.70;;;;;;5011595;28;20004;-73
2022/09/25 08:07:03;;;;;;;;;;;19.50;56.80;;;;;;5012859;28;19910;-74
2022/09/25 08:09:29;;;;;;;;;;;19.50;56.70;;;;;;5012951;28;19916;-73
2022/09/25 08:11:54;;;;;;;;;;;19.50;56.70;;;;;;5012765;28;19918;-73
2022/09/25 08:14:21;;;;;;;;;;;19.50;56.70;;;;;;5011460;28;19916;-74
2022/09/25 08:16:47;;;;;;;;;;;19.50;56.70;;;;;;5027401;28;20349;-73
2022/09/25 08:19:16;;;;;;;;;;;19.50;56.70;;;;;;5030996;28;19992;-74
2022/09/25 08:21:42;;;;;;;;;;;19.50;56.70;;;;;;5016607;28;19910;-73
2022/09/25 08:24:08;;;;;;;;;;;19.60;56.70;;;;;;5016717;28;20293;-73
2022/09/25 08:26:33;;;;;;;;;;;19.50;56.60;;;;;;5031709;28;19921;-74
2022/09/25 08:28:59;;;;;;;;;;;19.50;56.60;;;;;;5016609;28;19984;-74
2022/09/25 08:31:24;;;;;;;;;;;19.50;56.60;;;;;;5016247;28;19960;-73
2022/09/25 08:33:50;;;;;;;;;;;19.50;56.60;;;;;;5031849;28;19909;-73
2022/09/25 08:36:15;;;;;;;;;;;19.60;56.70;;;;;;5016323;28;19913;-74
2022/09/25 08:38:41;;;;;;;;;;;19.50;56.50;;;;;;4998794;28;19909;-74
2022/09/25 08:41:08;;;;;;;;;;;19.50;56.60;;;;;;4982348;28;19917;-72
2022/09/25 08:43:34;;;;;;;;;;;19.50;56.60;;;;;;5016384;28;19910;-74
2022/09/25 08:49:01;;;;;;;;;;;19.50;56.60;;;;;;5001590;28;19995;-73
2022/09/25 08:51:27;;;;;;;;;;;19.50;56.70;;;;;;5000442;28;19909;-73
2022/09/25 08:53:52;;;;;;;;;;;19.50;56.70;;;;;;4998653;28;19960;-73
2022/09/25 08:56:18;;;;;;;;;;;19.50;56.80;;;;;;5015976;28;20011;-73
2022/09/25 08:58:46;;;;;;;;;;;19.50;56.80;;;;;;4998455;28;19917;-74
2022/09/25 09:01:16;;;;;;;;;;;19.50;56.70;;;;;;5015645;28;19913;-73
2022/09/25 09:03:49;;;;;;;;;;;19.50;56.70;;;;;;4998243;28;20385;-73
2022/09/25 09:06:15;;;;;;;;;;;19.50;56.70;;;;;;4998634;28;19939;-73
2022/09/25 09:08:41;;;;;;;;;;;19.50;56.70;;;;;;5015790;28;19996;-74
2022/09/25 09:11:26;;;;;;;;;;;19.60;56.80;;;;;;4998312;28;20008;-74
2022/09/25 09:13:53;;;;;;;;;;;19.50;56.70;;;;;;5015762;28;19909;-72
2022/09/25 09:16:25;;;;;;;;;;;19.60;56.80;;;;;;4997889;28;19923;-74
2022/09/25 09:18:51;;;;;;;;;;;19.60;56.60;;;;;;5015687;28;20370;-73
2022/09/25 09:21:16;;;;;;;;;;;19.60;56.60;;;;;;4997817;28;19917;-73
2022/09/25 09:23:49;;;;;;;;;;;19.60;56.60;;;;;;5015835;28;20302;-73
2022/09/25 09:26:17;;;;;;;;;;;19.60;56.70;;;;;;4981405;28;19917;-73
2022/09/25 09:28:47;;;;;;;;;;;19.60;56.70;;;;;;4978515;28;19914;-73
2022/09/25 09:31:24;;;;;;;;;;;19.50;56.50;;;;;;4993327;28;19910;-73
2022/09/25 09:33:56;;;;;;;;;;;19.50;56.60;;;;;;4994547;28;19917;-74
2022/09/25 09:36:25;;;;;;;;;;;19.60;56.70;;;;;;4994326;28;19958;-73
2022/09/25 09:39:09;;;;;;;;;;;19.60;56.80;;;;;;5005928;28;19917;-73
2022/09/25 09:41:40;;;;;;;;;;;19.50;56.60;;;;;;5015071;28;19917;-74
2022/09/25 09:44:24;;;;;;;;;;;19.50;56.60;;;;;;5015366;28;19910;-73
2022/09/25 09:46:57;;;;;;;;;;;19.50;56.70;;;;;;5014760;28;20385;-74
2022/09/25 09:49:36;;;;;;;;;;;19.50;56.80;;;;;;5030344;28;20387;-73
2022/09/25 09:52:13;;;;;;;;;;;19.50;56.70;;;;;;5030224;28;19917;-73
2022/09/25 09:54:44;;;;;;;;;;;19.50;56.70;;;;;;5029712;28;19909;-73
2022/09/25 09:57:30;;;;;;;;;;;19.50;56.80;;;;;;5029973;28;19913;-73
2022/09/25 10:00:06;;;;;;;;;;;19.50;56.80;;;;;;5014469;28;19914;-74
2022/09/25 10:02:32;;;;;;;;;;;19.50;56.80;;;;;;5029642;28;19920;-74
2022/09/25 10:04:58;;;;;;;;;;;19.50;57.00;;;;;;5029974;28;19922;-73
2022/09/25 10:07:24;;;;;;;;;;;19.50;56.90;;;;;;5029941;28;19914;-73
2022/09/25 10:09:49;;;;;;;;;;;19.50;56.90;;;;;;5014674;28;19972;-73
2022/09/25 10:12:23;;;;;;;;;;;19.50;56.80;;;;;;5029760;28;19914;-73
2022/09/25 10:14:49;;;;;;;;;;;19.60;56.80;;;;;;5036249;28;19918;-74
2022/09/25 10:17:14;;;;;;;;;;;19.60;56.80;;;;;;5014106;28;20488;-73
2022/09/25 10:20:00;;;;;;;;;;;19.60;56.70;;;;;;5014564;28;20277;-73
2022/09/25 10:22:26;;;;;;;;;;;19.60;56.60;;;;;;5013853;28;19920;-73
2022/09/25 10:25:00;;;;;;;;;;;19.60;56.70;;;;;;5013104;28;19909;-73
2022/09/25 10:27:34;;;;;;;;;;;19.60;56.60;;;;;;5019671;28;19913;-73
2022/09/25 10:30:20;;;;;;;;;;;19.60;56.50;;;;;;5013222;28;19909;-74
2022/09/25 10:33:06;;;;;;;;;;;19.60;56.50;;;;;;5013709;28;19987;-74
2022/09/25 10:35:37;;;;;;;;;;;19.60;56.50;;;;;;5014198;28;20076;-73
2022/09/25 10:38:03;;;;;;;;;;;19.60;56.50;;;;;;5014072;28;20366;-73
2022/09/25 10:40:33;;;;;;;;;;;19.60;56.50;;;;;;5012432;28;19909;-73
2022/09/25 10:43:02;;;;;;;;;;;19.60;56.60;;;;;;5014091;28;20340;-73
2022/09/25 10:45:28;;;;;;;;;;;19.60;56.60;;;;;;5014089;28;19916;-74
2022/09/25 10:50:38;;;;;;;;;;;19.60;56.50;;;;;;5026813;28;19916;-73
2022/09/25 10:53:05;;;;;;;;;;;19.70;56.60;;;;;;5012692;28;20285;-74
2022/09/25 10:55:32;;;;;;;;;;;19.60;56.40;;;;;;5013922;28;19936;-73
2022/09/25 10:58:09;;;;;;;;;;;19.60;56.50;;;;;;5013822;28;19957;-73
2022/09/25 11:00:55;;;;;;;;;;;19.70;56.60;;;;;;5013667;28;19914;-73
2022/09/25 11:03:25;;;;;;;;;;;19.70;56.60;;;;;;5013247;28;20301;-74
2022/09/25 11:05:58;;;;;;;;;;;19.60;56.50;;;;;;5028827;28;19925;-73
2022/09/25 11:08:24;;;;;;;;;;;19.70;56.70;;;;;;5014809;28;19916;-73
2022/09/25 11:10:50;;;;;;;;;;;19.70;57.30;;;;;;4996020;28;19913;-73
2022/09/25 11:13:19;;;;;;;;;;;19.70;56.70;;;;;;5013670;28;19909;-73
2022/09/25 11:15:46;;;;;;;;;;;19.60;56.60;;;;;;5012963;28;19964;-74
2022/09/25 11:18:29;;;;;;;;;;;19.60;56.70;;;;;;4996243;28;19917;-73
2022/09/25 11:21:02;;;;;;;;;;;19.60;56.70;;;;;;5002495;28;19918;-73
2022/09/25 11:23:40;;;;;;;;;;;19.70;56.70;;;;;;4995948;28;19909;-74
2022/09/25 11:26:12;;;;;;;;;;;19.70;56.60;;;;;;4979476;28;19917;-74
2022/09/25 11:28:39;;;;;;;;;;;19.70;56.60;;;;;;4995591;28;19910;-73
2022/09/25 11:31:10;;;;;;;;;;;19.70;56.70;;;;;;4995356;28;19913;-73
2022/09/25 11:33:43;;;;;;;;;;;19.70;56.70;;;;;;4995587;28;19913;-73
2022/09/25 11:36:13;;;;;;;;;;;19.70;56.60;;;;;;5013098;28;19920;-73
2022/09/25 11:41:37;;;;;;;;;;;19.70;56.60;;;;;;5013216;28;20007;-73
2022/09/25 11:44:15;;;;;;;;;;;19.70;56.60;;;;;;5013139;28;20373;-73
2022/09/25 11:46:55;;;;;;;;;;;19.70;56.60;;;;;;5012852;28;20251;-73
2022/09/25 11:49:30;;;;;;;;;;;19.70;56.70;;;;;;4995569;28;20379;-73
2022/09/25 11:52:08;;;;;;;;;;;19.70;56.60;;;;;;4995308;28;19909;-74
2022/09/25 11:54:44;;;;;;;;;;;19.80;56.70;;;;;;5012693;28;19910;-73
2022/09/25 11:57:12;;;;;;;;;;;19.80;56.70;;;;;;4995443;28;20428;-73
2022/09/25 11:59:41;;;;;;;;;;;19.70;56.70;;;;;;5013105;28;20304;-74
2022/09/25 12:02:07;;;;;;;;;;;19.70;56.70;;;;;;5011357;28;19910;-73
2022/09/25 12:04:32;;;;;;;;;;;19.70;56.70;;;;;;5012745;28;20448;-74
2022/09/25 12:07:04;;;;;;;;;;;19.80;56.70;;;;;;5012728;28;20004;-73
2022/09/25 12:09:33;;;;;;;;;;;19.70;56.50;;;;;;5011711;28;19961;-72
2022/09/25 12:12:17;;;;;;;;;;;19.70;56.50;;;;;;5011556;28;19910;-73
2022/09/25 12:15:07;;;;;;;;;;;19.80;56.70;;;;;;5012872;28;20004;-73
2022/09/25 12:17:36;;;;;;;;;;;19.80;56.60;;;;;;5011317;28;19995;-73
2022/09/25 12:20:06;;;;;;;;;;;19.80;56.60;;;;;;5012819;28;19960;-73
2022/09/25 12:22:44;;;;;;;;;;;19.80;56.60;;;;;;5012802;28;19917;-74
2022/09/25 12:25:19;;;;;;;;;;;19.80;56.60;;;;;;5011681;28;19913;-74
2022/09/25 12:27:47;;;;;;;;;;;19.80;56.60;;;;;;5011563;28;19936;-73
2022/09/25 12:30:20;;;;;;;;;;;19.80;56.60;;;;;;4995227;28;20007;-73
2022/09/25 12:32:54;;;;;;;;;;;19.80;56.60;;;;;;4994471;28;19913;-73
2022/09/25 12:35:27;;;;;;;;;;;19.80;56.70;;;;;;5012489;28;19968;-73
2022/09/25 12:38:02;;;;;;;;;;;19.80;56.60;;;;;;5012206;28;19909;-74
2022/09/25 12:40:30;;;;;;;;;;;19.80;56.60;;;;;;5011775;28;19910;-74
2022/09/25 12:43:03;;;;;;;;;;;19.80;56.60;;;;;;5011275;28;19996;-73
2022/09/25 12:45:58;;;;;;;;;;;19.80;56.70;;;;;;5012635;28;20253;-73
2022/09/25 12:48:25;;;;;;;;;;;19.80;56.70;;;;;;4973940;28;19910;-73
2022/09/25 12:50:54;;;;;;;;;;;19.70;56.60;;;;;;4991698;28;20384;-74
2022/09/25 12:53:21;;;;;;;;;;;19.80;56.70;;;;;;4991706;28;20397;-74
2022/09/25 12:55:49;;;;;;;;;;;19.70;56.70;;;;;;4991728;28;19914;-73
2022/09/25 12:58:20;;;;;;;;;;;19.70;56.70;;;;;;4991804;28;20329;-73
2022/09/25 13:00:47;;;;;;;;;;;19.70;56.80;;;;;;4999016;28;20366;-73
2022/09/25 13:03:31;;;;;;;;;;;19.70;56.80;;;;;;4991924;28;19973;-73
2022/09/25 13:06:23;;;;;;;;;;;19.70;56.80;;;;;;4996398;28;19921;-73
2022/09/25 13:08:54;;;;;;;;;;;19.70;56.80;;;;;;4983743;28;19953;-73
2022/09/25 13:11:29;;;;;;;;;;;19.70;56.80;;;;;;5031153;28;20335;-73
2022/09/25 13:13:54;;;;;;;;;;;19.70;56.80;;;;;;5031073;28;19995;-72
2022/09/25 13:16:20;;;;;;;;;;;19.70;56.80;;;;;;5030484;28;20381;-73
2022/09/25 13:18:50;;;;;;;;;;;19.70;57.00;;;;;;5014479;28;20011;-73
2022/09/25 13:21:22;;;;;;;;;;;19.60;56.80;;;;;;5030483;28;19920;-72
2022/09/25 13:23:48;;;;;;;;;;;19.60;56.90;;;;;;5015808;28;19932;-73
2022/09/25 13:26:15;;;;;;;;;;;19.60;57.00;;;;;;5015634;28;20027;-73
2022/09/25 13:28:46;;;;;;;;;;;19.60;57.00;;;;;;5030884;28;19916;-73
2022/09/25 13:31:14;;;;;;;;;;;19.60;57.10;;;;;;5015182;28;19932;-74
2022/09/25 13:33:44;;;;;;;;;;;19.60;57.10;;;;;;5030511;28;19914;-73
2022/09/25 13:36:15;;;;;;;;;;;19.60;57.10;;;;;;5025352;28;20012;-73
2022/09/25 13:41:28;;;;;;;;;;;19.60;57.00;;;;;;5014257;28;20017;-74
2022/09/25 13:44:12;;;;;;;;;;;19.60;57.10;;;;;;5013893;28;19961;-74
2022/09/25 13:46:38;;;;;;;;;;;19.60;57.10;;;;;;5014797;28;19909;-74
2022/09/25 13:49:24;;;;;;;;;;;19.60;57.00;;;;;;5014079;28;20273;-72
2022/09/25 13:51:49;;;;;;;;;;;19.60;57.00;;;;;;5013881;28;19913;-72
2022/09/25 13:54:24;;;;;;;;;;;19.60;57.10;;;;;;5014096;28;19976;-73
2022/09/25 13:56:53;;;;;;;;;;;19.60;57.10;;;;;;5013676;28;19968;-73
2022/09/25 13:59:19;;;;;;;;;;;19.60;57.10;;;;;;5013932;28;20012;-73
2022/09/25 14:02:11;;;;;;;;;;;19.60;57.20;;;;;;5014492;28;19913;-72
2022/09/25 14:04:36;;;;;;;;;;;19.60;57.20;;;;;;5012601;28;20258;-74
2022/09/25 14:07:03;;;;;;;;;;;19.60;57.20;;;;;;5013578;28;19916;-72
2022/09/25 14:09:29;;;;;;;;;;;19.60;57.20;;;;;;4997022;28;19956;-73
2022/09/25 14:12:03;;;;;;;;;;;19.60;57.20;;;;;;5013431;28;19936;-73
2022/09/25 14:14:33;;;;;;;;;;;19.50;57.10;;;;;;5013622;28;19910;-73
2022/09/25 14:16:58;;;;;;;;;;;19.60;57.20;;;;;;5012169;28;20282;-72
2022/09/25 14:19:31;;;;;;;;;;;19.50;57.20;;;;;;5013419;28;20002;-73
2022/09/25 14:21:57;;;;;;;;;;;19.50;57.30;;;;;;5013176;28;19956;-73
2022/09/25 14:24:29;;;;;;;;;;;19.50;57.30;;;;;;5013169;28;19910;-72
2022/09/25 14:26:56;;;;;;;;;;;19.50;57.30;;;;;;5013103;28;20369;-73
2022/09/25 14:29:23;;;;;;;;;;;19.50;57.30;;;;;;5013193;28;20388;-73
2022/09/25 14:31:58;;;;;;;;;;;19.50;57.20;;;;;;5014033;28;19913;-73
2022/09/25 14:34:32;;;;;;;;;;;19.50;57.20;;;;;;5014359;28;19910;-73
2022/09/25 14:37:03;;;;;;;;;;;19.50;57.20;;;;;;5014052;28;19964;-73
2022/09/25 14:39:31;;;;;;;;;;;19.50;57.20;;;;;;5019422;28;20004;-72
2022/09/25 14:42:16;;;;;;;;;;;19.50;57.10;;;;;;5014173;28;20281;-73
2022/09/25 14:45:01;;;;;;;;;;;19.50;57.20;;;;;;5014123;28;19937;-73
2022/09/25 14:47:34;;;;;;;;;;;19.50;57.20;;;;;;5013761;28;20329;-73